Have a Safe July 4th! 

Flight Track Log - Related Links

Times and Time Zones

All times are in EDT time to prevent confusion due to time zone crossing. See the GJS3710 flight status page for this flight to view local times or setup timezone preferences in your user account.

Time Position Orientation Groundspeed Altitude Reporting Facility
EDT Latitude Longitude Course Direction KTS MPH feet Rate Location/Type
Thu 09:13:14 PM 42.0167 -87.8667 66° East 152 175 2,700  Level Chicago TRACON
Thu 09:14:08 PM 42.0333 -87.8000 71° East 232 267 3,900 1,300 Climbing Chicago TRACON
Thu 09:15:14 PM 42.0500 -87.7000 77° East 257 296 5,300 2,065 Climbing Chicago TRACON
Thu 09:16:00 PM 42.1579 -87.3763 66° East  Level FlightAware Approximate
Thu 09:17:00 PM 42.2033 -87.2401 66° East  Level FlightAware Approximate
Thu 09:17:14 PM 42.1069 -87.5150 67° East 285 328 10,300  Level Chicago Center
Thu 09:18:00 PM 42.2482 -87.1053 66° East  Level FlightAware Approximate
Thu 09:18:16 PM 42.1456 -87.4156 62° Northeast 299 344 12,900  Level Chicago Center
Thu 09:19:18 PM 42.1856 -87.3106 63° Northeast 314 361 15,300 2,129 Climbing Chicago Center
Thu 09:20:20 PM 42.2361 -87.1769 63° Northeast 335 386 17,300 1,839 Climbing Chicago Center
Thu 09:21:22 PM 42.2792 -87.0528 65° Northeast 364 419 19,100 1,694 Climbing Chicago Center
Thu 09:22:24 PM 42.2856 -86.9156 86° East 372 428 20,800 1,790 Climbing Chicago Center
Thu 09:23:26 PM 42.2906 -86.7767 87° East 373 429 22,800 1,790 Climbing Chicago Center
Thu 09:24:28 PM 42.2964 -86.6331 87° East 379 436 24,500 1,452 Climbing Chicago Center
Thu 09:25:30 PM 42.3017 -86.4658 88° East 390 449 25,800 968 Climbing Chicago Center
Thu 09:26:32 PM 42.3067 -86.3106 87° East 410 472 26,500 726 Climbing Chicago Center
Thu 09:27:34 PM 42.3131 -86.1417 87° East 437 503 27,300 823 Climbing Chicago Center
Thu 09:28:36 PM 42.3133 -85.9753 90° East 454 522 28,200 919 Climbing Chicago Center
Thu 09:29:38 PM 42.3111 -85.8036 91° East 460 529 29,200 968 Climbing Chicago Center
Thu 09:30:40 PM 42.3097 -85.6294 91° East 464 534 30,200 1,210 Climbing Chicago Center
Thu 09:31:42 PM 42.3078 -85.4194 91° East 468 539 31,700 1,357 Climbing Chicago Center
Thu 09:32:35 PM 42.3064 -85.2642 91° East 471 542 32,800 1,115 Climbing Cleveland Center
Thu 09:33:35 PM 42.3050 -85.0956 91° East 461 531 33,800 1,000 Climbing Cleveland Center
Thu 09:34:35 PM 42.3011 -84.9239 92° East 454 522 34,800 600 Climbing Cleveland Center
Thu 09:35:35 PM 42.3033 -84.7528 89° East 454 522 35,000 100 Climbing Cleveland Center
Thu 09:36:35 PM 42.3364 -84.5864 75° East 459 528 35,000  Level Cleveland Center
Thu 09:37:35 PM 42.3775 -84.4175 72° East 459 528 35,000  Level Cleveland Center
Thu 09:38:35 PM 42.4206 -84.2483 71° East 470 541 35,000  Level Cleveland Center
Thu 09:39:35 PM 42.4653 -84.0847 70° East 470 541 35,000 500 Level Cleveland Center
Thu 09:40:35 PM 42.5056 -83.9181 72° East 470 541 36,000 500 Climbing Cleveland Center
Thu 09:41:35 PM 42.5189 -83.7469 84° East 465 535 36,000 400 Level Cleveland Center
Thu 09:42:35 PM 42.5297 -83.5756 85° East 465 535 36,800 850 Climbing Cleveland Center
Thu 09:43:35 PM 42.5403 -83.4069 85° East 460 529 37,700 750 Climbing Cleveland Center
Thu 09:44:35 PM 42.5503 -83.2411 85° East 453 521 38,300 550 Climbing Cleveland Center
Thu 09:45:35 PM 42.5603 -83.0722 85° East 448 516 38,800 350 Climbing Cleveland Center
Thu 09:46:35 PM 42.5703 -82.9036 85° East 442 509 39,000 100 Climbing Cleveland Center
Thu 09:47:35 PM 42.5794 -82.7544 85° East 442 509 39,000  Level Cleveland Center
Thu 09:48:35 PM 42.5886 -82.5828 86° East 442 509 39,000  Level Cleveland Center
Thu 09:49:35 PM 42.5978 -82.4108 86° East 447 514 39,000  Level Cleveland Center
Thu 09:50:35 PM 42.6067 -82.2392 86° East 452 520 39,000  Level Cleveland Center
Thu 09:51:35 PM 42.6153 -82.0700 86° East 452 520 39,000  Level Cleveland Center
Thu 09:52:35 PM 42.6236 -81.8953 86° East 457 526 39,000  Level Cleveland Center
Thu 09:53:35 PM 42.6361 -81.7119 85° East 457 526 39,000  Level Cleveland Center
Thu 09:54:35 PM 42.6439 -81.5428 86° East 457 526 39,000  Level Cleveland Center
Thu 09:55:35 PM 42.6514 -81.3681 87° East 462 532 39,000  Level Cleveland Center
Thu 09:56:35 PM 42.6608 -81.1986 86° East 457 526 39,000  Level Cleveland Center
Thu 09:57:35 PM 42.6678 -81.0264 87° East 457 526 39,000  Level Cleveland Center
Thu 09:58:35 PM 42.6744 -80.8572 87° East 457 526 39,000  Level Cleveland Center
Thu 09:59:36 PM 42.6811 -80.6850 87° East 457 526 39,000  Level Cleveland Center
Thu 10:00:36 PM 42.6872 -80.5125 87° East 458 527 39,000  Level Cleveland Center
Thu 10:01:36 PM 42.6933 -80.3572 87° East 458 527 39,000  Level Cleveland Center
Thu 10:02:35 PM 42.7014 -80.1878 86° East 453 521 39,000  Level Cleveland Center
Thu 10:03:35 PM 42.7047 -80.0125 88° East 453 521 39,000  Level Cleveland Center
Thu 10:04:36 PM 42.7142 -79.8258 86° East 447 514 39,000  Level Cleveland Center
Thu 10:05:35 PM 42.7211 -79.6561 87° East 447 514 39,000  Level Cleveland Center
Thu 10:06:35 PM 42.7258 -79.4839 88° East 447 514 39,000  Level Cleveland Center
Thu 10:07:35 PM 42.7306 -79.3142 88° East 447 514 39,000  Level Cleveland Center
Thu 10:08:35 PM 42.7347 -79.1444 88° East 447 514 39,000  Level Cleveland Center
Thu 10:09:35 PM 42.7386 -78.9719 88° East 447 514 39,000  Level Cleveland Center
Thu 10:10:36 PM 42.7425 -78.8022 88° East 452 520 39,000  Level Cleveland Center
Thu 10:11:35 PM 42.7458 -78.6294 88° East 452 520 39,000  Level Cleveland Center
Thu 10:12:36 PM 42.7492 -78.4628 88° East 452 520 39,000  Level Cleveland Center
Thu 10:13:36 PM 42.7522 -78.2900 89° East 452 520 39,000 -50 Level Cleveland Center
Thu 10:14:36 PM 42.7569 -78.1203 88° East 452 520 38,900 -500 Descending Cleveland Center
Thu 10:15:36 PM 42.7597 -77.9533 89° East 447 514 38,000 -857 Descending Cleveland Center
Thu 10:16:35 PM 42.7639 -77.7833 88° East 442 509 37,200 -800 Descending Cleveland Center
Thu 10:17:36 PM 42.7617 -77.6136 91° East 442 509 36,400 -793 Descending Cleveland Center
Thu 10:18:36 PM 42.7656 -77.4411 88° East 442 509 35,600 -780 Descending Cleveland Center
Thu 10:20:56 PM 42.7692 -77.0597 89° East 441 507 33,800 -780 Descending Boston Center
Thu 10:21:56 PM 42.7700 -76.8842 90° East 447 514 33,000 -800 Descending Boston Center
Thu 10:22:56 PM 42.7706 -76.7089 90° East 458 527 32,200 -800 Descending Boston Center
Thu 10:23:56 PM 42.7728 -76.5336 89° East 463 533 31,400 -800 Descending Boston Center
Thu 10:24:56 PM 42.7728 -76.3581 90° East 463 533 30,600 -750 Descending Boston Center
Thu 10:25:56 PM 42.7722 -76.1825 90° East 458 527 29,900 -800 Descending Boston Center
Thu 10:26:56 PM 42.7736 -76.0128 89° East 458 527 29,000 -1,227 Descending Boston Center
Thu 10:28:08 PM 42.7722 -75.7864 90° East 464 534 27,200 -1,833 Descending Boston Center
Thu 10:29:20 PM 42.7714 -75.5911 90° East 439 505 24,600 -2,045 Descending Boston Center
Thu 10:30:20 PM 42.7697 -75.4297 91° East 427 491 22,700 -1,950 Descending Boston Center
Thu 10:31:20 PM 42.7694 -75.2714 90° East 421 484 20,700 -1,950 Descending Boston Center
Thu 10:32:20 PM 42.7689 -75.1214 90° East 407 468 18,800 -1,750 Descending Boston Center
Thu 10:33:20 PM 42.7681 -74.9828 90° East 387 445 17,200 -1,750 Descending Boston Center
Thu 10:34:20 PM 42.7647 -74.8442 92° East 375 432 15,300 -1,750 Descending Boston Center
Thu 10:35:20 PM 42.7633 -74.7139 91° East 353 406 13,700 -1,554 Descending Boston Center
Thu 10:36:39 PM 42.7622 -74.5525 90° East 335 386 11,700 -1,515 Descending Boston Center
Thu 10:37:03 PM 42.7592 -74.4931 94° East 331 381 11,100 -679 Descending Boston Center
Thu 10:37:32 PM 42.7600 -74.4481 89° East 336 387 11,100  Level Boston Center
Thu 10:38:04 PM 42.7592 -74.3658 91° East 333 383 11,100 -300 Level Boston Center
Thu 10:38:32 PM 42.7642 -74.3150 82° East 320 368 10,800 -1,091 Descending Boston Center
Thu 10:39:10 PM 42.7714 -74.2558 81° East 271 312 9,900 -1,400 Descending Boston Center
Thu 10:39:32 PM 42.7761 -74.2278 77° East 286 329 9,400 -1,574 Descending Boston Center
Thu 10:40:11 PM 42.7878 -74.1544 78° East 259 298 8,300 -1,800 Descending Boston Center
Thu 10:40:32 PM 42.7944 -74.1208 75° East 263 303 7,600 -1,770 Descending Boston Center
Thu 10:41:12 PM 42.8036 -74.0589 79° East 260 299 6,500 -1,900 Descending Boston Center
Thu 10:41:32 PM 42.8103 -74.0250 75° East 257 296 5,700 -2,100 Descending Boston Center
Thu 10:42:12 PM 42.8217 -73.9631 76° East 264 304 4,400 -1,750 Descending Boston Center
Thu 10:42:44 PM 42.8283 -73.9292 75° East 257 296 3,600 -1,377 Descending Boston Center
Thu 10:43:13 PM 42.8436 -73.8700 71° East 225 259 3,000 -800 Descending Boston Center
Thu 10:43:44 PM 42.8483 -73.8306 81° East 257 296 2,800 -387 Descending Boston Center

Login

Don't have an account? Register now (free) for customized features, flight alerts, and more!